Time;durP1;ratioP1;P1;durP2;ratioP2;P2;SDS_P1;SDS_P2;PMS_P1;PMS_P2;Temp;Humidity;BMP_temperature;BMP_pressure;BME280_temperature;BME280_humidity;BME280_pressure;Samples;Min_cycle;Max_cycle;Signal;HPM_P1;HPM_P2
2021/05/03 00:01:07;;;;;;;5.88;1.42;;;;;;;17.24;31.42;94411.63;2975152;39;20109;-82
2021/05/03 00:03:09;;;;;;;11.10;1.15;;;;;;;17.11;31.68;94413.28;2977882;39;20055;-80
2021/05/03 00:05:37;;;;;;;6.57;1.30;;;;;;;17.05;32.01;94408.81;2974444;40;20403;-83
2021/05/03 00:07:38;;;;;;;6.55;1.38;;;;;;;17.09;32.03;94394.16;2971938;39;20076;-83
2021/05/03 00:09:40;;;;;;;6.60;1.33;;;;;;;17.05;32.29;94397.41;2975942;39;20040;-82
2021/05/03 00:11:41;;;;;;;3.65;1.17;;;;;;;17.02;32.40;94398.66;2975656;39;20052;-82
2021/05/03 00:13:42;;;;;;;8.50;1.10;;;;;;;17.01;32.35;94401.50;2974210;39;20056;-83
2021/05/03 00:15:44;;;;;;;8.15;1.80;;;;;;;16.99;33.00;94397.22;2975754;39;20125;-83
2021/05/03 00:17:45;;;;;;;5.82;1.73;;;;;;;16.82;32.99;94398.69;2971072;39;20096;-84
2021/05/03 00:19:47;;;;;;;5.47;1.27;;;;;;;16.78;33.25;94395.59;2974020;40;20040;-80
2021/05/03 00:21:48;;;;;;;7.72;1.60;;;;;;;16.72;33.30;94395.59;2972781;39;20065;-81
2021/05/03 00:23:49;;;;;;;8.35;1.58;;;;;;;16.71;33.23;94400.09;2987588;39;20044;-82
2021/05/03 00:25:50;;;;;;;6.15;1.88;;;;;;;16.71;32.83;94401.88;2970103;39;20073;-83
2021/05/03 00:27:52;;;;;;;5.82;1.08;;;;;;;16.78;32.92;94398.22;2974876;39;20325;-82
2021/05/03 00:29:53;;;;;;;6.40;1.67;;;;;;;17.03;31.89;94394.97;2975826;39;20377;-83
2021/05/03 00:31:54;;;;;;;4.90;1.02;;;;;;;17.30;31.18;94400.22;2976168;39;20343;-82
2021/05/03 00:33:55;;;;;;;7.07;1.40;;;;;;;17.47;30.94;94404.03;2979210;39;20067;-83
2021/05/03 00:35:57;;;;;;;5.88;1.10;;;;;;;17.66;30.25;94407.66;2971825;40;20080;-83
2021/05/03 00:37:59;;;;;;;4.93;1.20;;;;;;;17.73;30.20;94407.63;2970491;39;20294;-81
2021/05/03 00:40:01;;;;;;;7.15;1.27;;;;;;;17.79;29.89;94417.38;2971959;39;20124;-71
2021/05/03 00:42:02;;;;;;;6.68;1.35;;;;;;;17.87;29.93;94427.75;2975410;39;20332;-69
2021/05/03 00:44:04;;;;;;;5.95;1.10;;;;;;;18.03;29.70;94428.31;2973090;39;20390;-69
2021/05/03 00:46:07;;;;;;;6.32;1.20;;;;;;;18.09;29.60;94435.38;2967863;40;20089;-69
2021/05/03 00:48:08;;;;;;;7.43;1.00;;;;;;;18.11;29.18;94431.53;2970447;39;20044;-71
2021/05/03 00:50:11;;;;;;;2.88;0.88;;;;;;;18.18;29.54;94445.56;2967894;40;20056;-70
2021/05/03 00:52:14;;;;;;;2.83;1.05;;;;;;;18.20;29.17;94434.75;2968628;40;20423;-82
2021/05/03 00:54:15;;;;;;;3.15;0.80;;;;;;;18.23;29.31;94429.00;2975056;39;20051;-83
2021/05/03 00:56:16;;;;;;;3.17;1.10;;;;;;;18.17;29.24;94428.00;2972038;39;20064;-82
2021/05/03 00:58:18;;;;;;;4.50;0.95;;;;;;;18.18;29.34;94439.44;2968409;40;20056;-71
2021/05/03 01:00:20;;;;;;;7.78;1.10;;;;;;;18.20;29.44;94434.75;2968810;39;20080;-72
2021/05/03 01:02:22;;;;;;;5.40;1.42;;;;;;;18.28;29.31;94431.00;2967488;40;20060;-71
2021/05/03 01:04:23;;;;;;;4.72;0.98;;;;;;;18.32;29.13;94432.22;2968601;39;20368;-69
2021/05/03 01:06:24;;;;;;;2.65;0.93;;;;;;;18.36;29.16;94420.16;2971270;39;20108;-82
2021/05/03 01:08:25;;;;;;;7.43;1.20;;;;;;;18.31;29.12;94420.00;2975406;40;20421;-82
2021/05/03 01:10:27;;;;;;;4.60;1.17;;;;;;;18.37;29.10;94408.53;2972922;39;20092;-81
2021/05/03 01:12:29;;;;;;;4.15;1.15;;;;;;;18.40;29.29;94426.66;2975341;39;20333;-81
2021/05/03 01:14:30;;;;;;;5.05;1.30;;;;;;;18.43;29.02;94418.25;2974535;39;20386;-82
2021/05/03 01:16:31;;;;;;;2.92;1.48;;;;;;;18.42;29.43;94412.16;2974987;39;20051;-80
2021/05/03 01:18:36;;;;;;;4.32;1.15;;;;;;;18.45;29.07;94410.09;2963269;40;20047;-83
2021/05/03 01:20:38;;;;;;;3.70;0.93;;;;;;;18.47;29.41;94413.34;2974858;39;20076;-83
2021/05/03 01:22:40;;;;;;;6.95;1.00;;;;;;;18.44;29.74;94417.25;2975420;39;20345;-83
2021/05/03 01:24:41;;;;;;;4.05;1.30;;;;;;;18.24;29.98;94420.03;2974203;39;20052;-83
2021/05/03 01:26:43;;;;;;;4.35;1.30;;;;;;;18.12;30.17;94425.19;2971210;40;20070;-80
2021/05/03 01:28:44;;;;;;;4.18;1.25;;;;;;;17.97;30.40;94430.75;2971098;39;20084;-81
2021/05/03 01:30:47;;;;;;;5.10;0.95;;;;;;;17.90;30.72;94437.94;2970844;39;20153;-81
2021/05/03 01:32:51;;;;;;;4.00;0.97;;;;;;;17.69;31.21;94427.59;2964608;40;20067;-83
2021/05/03 01:34:52;;;;;;;3.97;1.05;;;;;;;17.48;31.49;94433.97;2974364;39;20068;-83
2021/05/03 01:36:53;;;;;;;2.72;1.02;;;;;;;17.15;32.07;94435.66;2976893;39;20167;-81
2021/05/03 01:38:54;;;;;;;3.35;1.60;;;;;;;17.18;32.21;94432.59;2971708;39;20064;-81
2021/05/03 01:40:56;;;;;;;2.72;0.90;;;;;;;17.15;32.38;94426.94;2972255;39;20056;-81
2021/05/03 01:43:11;;;;;;;8.57;1.25;;;;;;;16.72;33.00;94428.13;2975588;39;20397;-81
2021/05/03 01:45:13;;;;;;;7.75;1.52;;;;;;;16.81;32.64;94425.31;2972604;39;20052;-81
2021/05/03 01:47:14;;;;;;;4.00;1.17;;;;;;;16.76;33.08;94434.66;2972731;39;20277;-80
2021/05/03 01:49:17;;;;;;;3.42;1.10;;;;;;;16.82;32.99;94443.66;2977782;39;20044;-82
2021/05/03 01:51:18;;;;;;;6.20;1.45;;;;;;;16.77;33.24;94446.84;2973626;39;20113;-82
2021/05/03 01:53:20;;;;;;;4.85;1.05;;;;;;;16.74;32.88;94449.09;2969359;39;20074;-81
2021/05/03 01:55:22;;;;;;;3.95;0.82;;;;;;;16.57;33.49;94456.63;2971052;39;20063;-84
2021/05/03 01:57:23;;;;;;;5.65;1.20;;;;;;;16.42;33.60;94458.63;2967589;40;20117;-82
2021/05/03 01:59:31;;;;;;;4.13;1.00;;;;;;;16.59;33.37;94462.53;2974442;39;20060;-81
2021/05/03 02:01:33;;;;;;;6.13;1.25;;;;;;;16.44;33.57;94468.00;2975928;39;20084;-81
2021/05/03 02:03:35;;;;;;;9.95;3.08;;;;;;;16.48;33.66;94466.56;2971266;39;20119;-82
2021/05/03 02:05:36;;;;;;;4.00;1.30;;;;;;;16.53;33.54;94474.72;2975021;39;20051;-82
2021/05/03 02:07:37;;;;;;;5.82;1.30;;;;;;;16.67;33.51;94478.19;2976241;39;20096;-81
2021/05/03 02:09:41;;;;;;;5.57;1.20;;;;;;;16.88;33.40;94474.56;2968395;39;20293;-83
2021/05/03 02:11:43;;;;;;;7.13;0.98;;;;;;;17.05;32.97;94474.97;2974691;39;20067;-81
2021/05/03 02:13:44;;;;;;;5.10;1.50;;;;;;;17.22;32.74;94479.84;2971583;39;20059;-81
2021/05/03 02:15:47;;;;;;;2.72;1.02;;;;;;;17.35;32.66;94466.59;2976500;39;20064;-83
2021/05/03 02:17:48;;;;;;;2.83;0.98;;;;;;;17.43;32.46;94471.69;2976953;39;20052;-80
2021/05/03 02:19:49;;;;;;;4.57;1.85;;;;;;;17.52;32.24;94481.00;2979953;39;20071;-82
2021/05/03 02:21:51;;;;;;;4.82;1.50;;;;;;;17.51;32.31;94474.09;2977177;39;20059;-81
2021/05/03 02:24:10;;;;;;;3.67;1.10;;;;;;;17.34;32.53;94470.28;2971423;39;20047;-82
2021/05/03 02:26:11;;;;;;;3.50;1.35;;;;;;;17.26;32.92;94466.00;2976462;39;20063;-83
2021/05/03 02:28:13;;;;;;;3.80;1.63;;;;;;;17.23;32.94;94466.41;2975691;39;20060;-79
2021/05/03 02:30:16;;;;;;;4.30;1.50;;;;;;;17.20;33.12;94475.56;2973215;39;20114;-82
2021/05/03 02:32:18;;;;;;;4.85;1.83;;;;;;;17.17;33.17;94483.94;2968550;40;20385;-81
2021/05/03 02:34:19;;;;;;;3.47;1.38;;;;;;;17.09;33.42;94480.69;2968838;40;20056;-82
2021/05/03 02:36:21;;;;;;;5.68;1.42;;;;;;;17.12;33.34;94477.59;2975908;39;20367;-81
2021/05/03 02:38:23;;;;;;;5.15;1.38;;;;;;;16.85;33.93;94482.09;2970045;39;20099;-82
2021/05/03 02:40:25;;;;;;;3.78;1.45;;;;;;;16.78;34.18;94480.25;2969677;40;20045;-82
2021/05/03 02:42:27;;;;;;;3.20;1.33;;;;;;;16.65;34.47;94487.31;2972939;39;20052;-81
2021/05/03 02:44:29;;;;;;;4.78;1.23;;;;;;;16.67;34.44;94488.78;2972185;39;20055;-82
2021/05/03 02:46:30;;;;;;;5.85;1.40;;;;;;;16.58;34.60;94495.25;2970281;39;20285;-83
2021/05/03 02:48:33;;;;;;;3.53;1.33;;;;;;;16.62;34.62;94506.25;2968654;39;20041;-82
2021/05/03 02:50:34;;;;;;;4.18;1.20;;;;;;;16.63;35.27;94511.34;2969268;40;20056;-82
2021/05/03 02:52:36;;;;;;;3.75;1.35;;;;;;;16.78;34.39;94511.97;2968079;39;20088;-82
2021/05/03 02:54:37;;;;;;;4.30;1.30;;;;;;;16.81;34.39;94512.63;2964199;40;20060;-80
2021/05/03 02:56:38;;;;;;;6.57;1.33;;;;;;;16.54;34.94;94518.66;2974475;39;20148;-82
2021/05/03 02:58:39;;;;;;;3.13;1.30;;;;;;;16.64;35.06;94512.16;2976879;39;20402;-82
2021/05/03 03:00:41;;;;;;;4.00;1.33;;;;;;;16.78;34.92;94522.56;2975346;39;20052;-81
2021/05/03 03:02:42;;;;;;;4.00;1.17;;;;;;;16.92;34.47;94525.25;2974650;39;20113;-82
2021/05/03 03:04:43;;;;;;;7.47;1.33;;;;;;;16.86;34.72;94526.84;2971925;40;20067;-80
2021/05/03 03:06:45;;;;;;;3.97;1.10;;;;;;;16.84;34.86;94531.53;2971167;39;20124;-71
2021/05/03 03:08:46;;;;;;;4.07;1.40;;;;;;;16.88;34.97;94537.25;2967415;39;20096;-71
2021/05/03 03:10:47;;;;;;;4.75;1.45;;;;;;;16.78;34.95;94529.69;2973185;39;20071;-70
2021/05/03 03:12:49;;;;;;;3.50;1.10;;;;;;;16.87;34.79;94525.84;2973319;39;20052;-70
2021/05/03 03:14:50;;;;;;;4.22;1.23;;;;;;;16.78;35.09;94527.03;2967514;40;20044;-71
2021/05/03 03:16:52;;;;;;;5.95;1.42;;;;;;;16.63;35.68;94531.66;2963701;40;20052;-70
2021/05/03 03:18:55;;;;;;;6.88;1.17;;;;;;;16.69;35.67;94539.66;2969917;39;20056;-83
2021/05/03 03:20:56;;;;;;;3.42;1.40;;;;;;;16.65;35.77;94542.88;2970397;39;20402;-81
2021/05/03 03:22:57;;;;;;;3.92;1.13;;;;;;;16.27;36.30;94543.38;2968872;40;20080;-81
2021/05/03 03:24:58;;;;;;;7.22;1.70;;;;;;;16.16;36.80;94542.13;2970929;39;20087;-83
2021/05/03 03:27:00;;;;;;;5.50;1.95;;;;;;;16.06;36.97;94554.88;2970929;39;20135;-85
2021/05/03 03:29:03;;;;;;;4.05;1.48;;;;;;;16.18;37.01;94569.19;2970862;39;20107;-84
2021/05/03 03:31:04;;;;;;;7.97;1.58;;;;;;;16.38;36.71;94567.41;2971698;39;20072;-83
2021/05/03 03:33:05;;;;;;;5.53;1.48;;;;;;;16.59;36.16;94555.09;2971105;39;20056;-82
2021/05/03 03:35:07;;;;;;;7.25;1.48;;;;;;;16.72;36.11;94560.41;2970069;39;20089;-84
2021/05/03 03:37:09;;;;;;;6.00;1.70;;;;;;;16.87;35.72;94562.09;2975116;39;20067;-81
2021/05/03 03:39:10;;;;;;;9.95;2.20;;;;;;;16.98;35.60;94559.66;2974071;40;20135;-81
2021/05/03 03:41:12;;;;;;;6.10;1.30;;;;;;;16.87;35.70;94564.72;2977228;39;20056;-82
2021/05/03 03:43:13;;;;;;;3.65;1.38;;;;;;;16.88;36.01;94574.28;2979627;39;20131;-81
2021/05/03 03:45:15;;;;;;;3.45;1.30;;;;;;;16.91;35.94;94584.50;2976747;39;20052;-80
2021/05/03 03:47:17;;;;;;;5.38;1.13;;;;;;;16.82;36.34;94586.50;2972108;39;20080;-78
2021/05/03 03:49:19;;;;;;;6.30;1.77;;;;;;;16.93;36.06;94583.25;2978364;39;20755;-82
2021/05/03 03:51:20;;;;;;;6.65;1.60;;;;;;;17.02;35.96;94583.88;2975497;39;20050;-82
2021/05/03 03:53:21;;;;;;;6.63;1.55;;;;;;;16.96;36.39;94589.97;2970092;39;20088;-82
2021/05/03 03:55:22;;;;;;;6.53;1.88;;;;;;;16.90;36.21;94590.78;2972902;39;20084;-82
2021/05/03 03:57:24;;;;;;;5.82;2.05;;;;;;;16.83;36.41;94598.72;2976075;39;20060;-82
2021/05/03 03:59:26;;;;;;;2.97;1.35;;;;;;;16.95;36.19;94604.22;2975034;39;20455;-80
2021/05/03 04:01:30;;;;;;;4.60;1.20;;;;;;;16.98;36.10;94596.69;2974282;39;20101;-79
2021/05/03 04:03:31;;;;;;;4.60;1.13;;;;;;;16.95;36.75;94604.22;2975174;39;20064;-80
2021/05/03 04:10:08;;;;;;;6.47;1.55;;;;;;;16.74;37.20;94611.28;2974495;39;20063;-81
2021/05/03 04:12:26;;;;;;;5.32;1.35;;;;;;;16.40;37.82;94616.66;2970644;39;20064;-82
2021/05/03 04:25:54;;;;;;;3.35;1.15;;;;;;;16.82;37.77;94643.88;2977287;39;20381;-83
2021/05/03 04:27:56;;;;;;;5.70;1.25;;;;;;;16.84;38.00;94647.13;2976620;39;20063;-82
2021/05/03 04:29:57;;;;;;;5.47;1.52;;;;;;;17.00;37.70;94641.50;2970045;39;20139;-84
2021/05/03 04:31:58;;;;;;;5.57;1.58;;;;;;;17.17;37.34;94641.94;2973207;39;20440;-69
2021/05/03 04:33:59;;;;;;;4.97;1.40;;;;;;;17.27;37.40;94646.81;2967683;40;20065;-71
2021/05/03 04:36:01;;;;;;;5.28;1.23;;;;;;;17.37;37.11;94644.59;2967967;40;20056;-69
2021/05/03 04:38:02;;;;;;;4.57;1.73;;;;;;;17.48;36.89;94653.78;2973666;39;20070;-70
2021/05/03 04:40:04;;;;;;;5.28;1.55;;;;;;;17.52;36.75;94655.81;2968012;40;20056;-69
2021/05/03 04:42:05;;;;;;;4.53;1.40;;;;;;;17.59;36.57;94659.31;2973133;39;20052;-73
2021/05/03 04:44:07;;;;;;;5.13;1.50;;;;;;;17.64;36.47;94657.84;2970167;39;20342;-70
2021/05/03 04:46:09;;;;;;;7.07;1.80;;;;;;;17.65;36.43;94670.09;2968271;40;20116;-70
2021/05/03 04:48:10;;;;;;;6.75;1.60;;;;;;;17.70;36.41;94672.94;2971280;39;20502;-70
2021/05/03 04:50:12;;;;;;;8.10;1.70;;;;;;;17.71;36.47;94671.94;2967724;40;20056;-71
2021/05/03 04:52:13;;;;;;;2.90;1.10;;;;;;;17.76;36.68;94677.44;2970484;39;20084;-72
2021/05/03 04:54:14;;;;;;;4.47;1.65;;;;;;;17.76;36.77;94683.53;2966503;40;20079;-71
2021/05/03 04:56:15;;;;;;;5.20;1.50;;;;;;;17.76;36.77;94688.84;2969539;39;20044;-70
2021/05/03 04:58:17;;;;;;;4.85;1.23;;;;;;;17.68;36.81;94682.91;2969464;40;20135;-71
2021/05/03 05:00:19;;;;;;;3.17;1.02;;;;;;;17.58;36.67;94680.69;2967437;40;20052;-70
2021/05/03 05:02:20;;;;;;;5.22;1.60;;;;;;;17.50;37.05;94688.81;2967172;40;20197;-70
2021/05/03 05:04:21;;;;;;;6.75;1.70;;;;;;;17.60;37.25;94690.06;2968969;39;20416;-70
2021/05/03 05:06:22;;;;;;;5.43;1.48;;;;;;;17.56;37.43;94693.31;2968023;39;20084;-70
2021/05/03 05:08:24;;;;;;;6.20;1.40;;;;;;;17.63;37.56;94690.66;2968248;39;20353;-70
2021/05/03 05:10:25;;;;;;;5.90;1.85;;;;;;;17.63;37.57;94704.72;2971052;39;20055;-71
2021/05/03 05:12:26;;;;;;;4.53;1.90;;;;;;;17.68;37.40;94706.75;2966303;40;20068;-71
2021/05/03 05:14:27;;;;;;;4.38;1.33;;;;;;;17.67;37.85;94703.31;2970020;39;20048;-71
2021/05/03 05:16:29;;;;;;;5.20;1.85;;;;;;;17.71;38.77;94701.06;2973515;39;20113;-70
2021/05/03 05:18:30;;;;;;;5.88;1.67;;;;;;;17.91;38.97;94693.97;2969935;39;20060;-72
2021/05/03 05:20:31;;;;;;;3.38;1.40;;;;;;;17.95;39.68;94713.75;2967205;40;20056;-71
2021/05/03 05:22:33;;;;;;;4.97;1.70;;;;;;;17.96;40.51;94706.59;2966596;40;20111;-71
2021/05/03 05:24:35;;;;;;;6.10;1.50;;;;;;;18.00;41.26;94711.31;2965996;40;20105;-70
2021/05/03 05:26:36;;;;;;;4.80;1.48;;;;;;;17.81;42.06;94712.91;2975810;39;20056;-73
2021/05/03 05:28:38;;;;;;;4.57;1.80;;;;;;;17.80;42.60;94723.69;2974958;39;20450;-70
2021/05/03 05:30:39;;;;;;;5.72;1.50;;;;;;;17.70;42.95;94721.47;2970770;39;20088;-69
2021/05/03 05:32:40;;;;;;;4.15;1.42;;;;;;;17.54;43.56;94727.94;2970207;39;20056;-70
2021/05/03 05:34:42;;;;;;;4.13;1.73;;;;;;;17.31;44.74;94723.00;2965596;40;20473;-71
2021/05/03 05:36:43;;;;;;;5.90;1.60;;;;;;;17.23;44.72;94730.31;2969473;39;20345;-70
2021/05/03 05:38:46;;;;;;;7.23;2.00;;;;;;;17.25;45.19;94718.53;2974812;39;20062;-69
2021/05/03 05:40:47;;;;;;;4.47;1.55;;;;;;;17.31;45.61;94724.84;2971044;39;20693;-69
2021/05/03 05:42:48;;;;;;;5.00;1.63;;;;;;;17.19;46.25;94730.72;2973088;39;20040;-72
2021/05/03 05:44:59;;;;;;;6.35;1.80;;;;;;;16.95;47.02;94729.41;2969619;39;20064;-71
2021/05/03 05:47:00;;;;;;;7.43;1.50;;;;;;;17.26;46.76;94737.88;2970480;39;20053;-72
2021/05/03 05:49:03;;;;;;;7.72;1.55;;;;;;;17.37;47.14;94739.94;2967282;40;20048;-72
2021/05/03 05:51:05;;;;;;;7.00;1.75;;;;;;;17.64;46.55;94742.63;2970134;39;20331;-69
2021/05/03 05:53:06;;;;;;;4.32;2.25;;;;;;;17.61;46.83;94744.66;2970477;39;20052;-72
2021/05/03 05:55:08;;;;;;;10.57;1.90;;;;;;;17.70;46.75;94742.66;2969078;39;20092;-71
2021/05/03 05:57:09;;;;;;;4.13;1.52;;;;;;;17.75;46.77;94740.22;2967504;40;20060;-71
2021/05/03 05:59:11;;;;;;;8.45;1.92;;;;;;;17.81;46.91;94741.25;2971011;39;20621;-71
2021/05/03 06:01:12;;;;;;;7.15;2.08;;;;;;;17.78;46.80;94738.97;2965913;40;20040;-70
2021/05/03 06:03:13;;;;;;;3.88;1.63;;;;;;;17.78;47.03;94738.97;2968566;39;20048;-69
2021/05/03 06:05:15;;;;;;;7.70;1.80;;;;;;;17.40;48.05;94739.50;2968143;39;20048;-70
2021/05/03 06:07:17;;;;;;;5.03;1.50;;;;;;;17.51;47.90;94738.13;2967916;39;20376;-71
2021/05/03 06:09:31;;;;;;;4.47;1.67;;;;;;;17.23;48.80;94746.19;2969093;39;20056;-71
2021/05/03 06:11:32;;;;;;;8.68;2.00;;;;;;;17.39;48.57;94740.53;2968685;39;20386;-71
2021/05/03 06:13:33;;;;;;;3.05;1.92;;;;;;;17.18;48.81;94746.78;2967780;39;20057;-71
2021/05/03 06:15:34;;;;;;;5.13;2.00;;;;;;;16.81;49.93;94748.06;2967336;40;20072;-71
2021/05/03 06:17:36;;;;;;;5.60;2.00;;;;;;;17.04;49.58;94743.28;2969888;39;20060;-70
2021/05/03 06:19:37;;;;;;;6.97;2.80;;;;;;;16.72;50.67;94739.47;2968233;39;20107;-71
2021/05/03 06:21:38;;;;;;;5.28;2.03;;;;;;;16.99;50.19;94749.19;2966989;40;20052;-71
2021/05/03 06:23:40;;;;;;;4.90;2.13;;;;;;;17.11;50.14;94748.59;2968760;40;20086;-70
2021/05/03 06:25:43;;;;;;;5.82;2.30;;;;;;;17.22;49.43;94749.88;2973170;39;20120;-71
2021/05/03 06:27:44;;;;;;;5.22;1.95;;;;;;;17.38;49.47;94758.28;2968935;39;20052;-71
2021/05/03 06:29:45;;;;;;;7.82;2.35;;;;;;;17.22;49.64;94776.34;2968622;40;20083;-71
2021/05/03 06:31:47;;;;;;;7.47;2.78;;;;;;;16.72;51.48;94765.91;2966373;40;20075;-71
2021/05/03 06:33:49;;;;;;;8.60;3.28;;;;;;;16.71;51.44;94761.63;2967123;40;20432;-70
2021/05/03 06:35:50;;;;;;;6.22;2.50;;;;;;;16.87;51.09;94752.59;2967354;40;20060;-70
2021/05/03 06:37:52;;;;;;;7.00;2.30;;;;;;;17.04;51.42;94745.94;2971830;39;20059;-71
2021/05/03 06:39:53;;;;;;;5.60;2.15;;;;;;;17.37;50.34;94750.53;2966520;39;20081;-71
2021/05/03 06:41:54;;;;;;;5.60;1.95;;;;;;;17.53;49.84;94751.97;2969633;39;20397;-71
2021/05/03 06:43:55;;;;;;;4.68;2.20;;;;;;;17.72;49.59;94747.72;2972258;39;20047;-71
2021/05/03 06:45:58;;;;;;;5.45;2.70;;;;;;;17.89;49.11;94751.66;2970034;39;20092;-71
2021/05/03 06:48:03;;;;;;;5.30;2.15;;;;;;;17.71;49.29;94748.75;2971236;39;20426;-71
2021/05/03 06:50:06;;;;;;;3.67;2.05;;;;;;;17.61;49.72;94743.84;2967584;39;20076;-71
2021/05/03 06:52:07;;;;;;;4.38;2.03;;;;;;;17.77;49.55;94737.38;2967165;40;20052;-70
2021/05/03 06:54:09;;;;;;;5.22;2.50;;;;;;;17.69;49.74;94740.19;2969091;40;20067;-80
2021/05/03 06:56:11;;;;;;;3.45;1.95;;;;;;;17.65;50.14;94746.91;2968661;40;20052;-84
2021/05/03 06:58:13;;;;;;;6.38;2.42;;;;;;;17.80;49.22;94742.25;2970121;39;20052;-83
2021/05/03 07:00:16;;;;;;;6.28;2.75;;;;;;;17.95;48.75;94745.53;2973172;39;20145;-83
2021/05/03 07:02:17;;;;;;;3.80;1.98;;;;;;;17.76;48.42;94736.53;2973938;39;20056;-84
2021/05/03 07:04:20;;;;;;;6.47;1.87;;;;;;;17.56;48.84;94744.44;2970519;39;20052;-82
2021/05/03 07:06:21;;;;;;;6.30;2.40;;;;;;;17.31;49.24;94738.06;2975216;39;20563;-82
2021/05/03 07:08:25;;;;;;;4.45;2.72;;;;;;;17.33;49.37;94731.56;2974510;39;20056;-84
2021/05/03 07:10:26;;;;;;;4.88;2.20;;;;;;;17.28;49.53;94757.03;2968086;40;20044;-82
2021/05/03 07:12:27;;;;;;;6.03;2.47;;;;;;;17.14;49.53;94762.28;2975653;39;20133;-83
2021/05/03 07:14:29;;;;;;;4.95;2.22;;;;;;;16.85;50.25;94750.13;2972354;39;20339;-83
2021/05/03 07:16:30;;;;;;;4.95;2.20;;;;;;;16.62;51.44;94746.94;2973184;39;20072;-83
2021/05/03 07:18:32;;;;;;;5.78;2.20;;;;;;;16.75;50.96;94745.16;2973124;39;20064;-83
2021/05/03 07:20:33;;;;;;;6.97;2.80;;;;;;;16.56;51.60;94737.94;2977725;39;20100;-82
2021/05/03 07:22:35;;;;;;;3.13;2.25;;;;;;;16.75;50.93;94753.09;2977604;39;20055;-81
2021/05/03 07:24:40;;;;;;;6.40;2.28;;;;;;;17.07;50.33;94739.44;2975638;39;20048;-85
2021/05/03 07:26:42;;;;;;;4.50;2.30;;;;;;;17.62;48.88;94740.19;2978725;39;20055;-83
2021/05/03 07:28:43;;;;;;;3.65;2.00;;;;;;;18.08;47.85;94743.91;2967121;39;20453;-83
2021/05/03 07:30:44;;;;;;;5.45;1.88;;;;;;;18.39;46.68;94737.97;2966969;40;20127;-82
2021/05/03 07:32:46;;;;;;;8.88;2.60;;;;;;;18.57;45.72;94734.69;2964296;40;20088;-71
2021/05/03 07:34:48;;;;;;;12.07;4.43;;;;;;;18.46;45.73;94748.59;2967597;39;20052;-69
2021/05/03 07:36:49;;;;;;;9.10;4.43;;;;;;;18.62;45.09;94748.13;2969679;39;20058;-71
2021/05/03 07:38:52;;;;;;;6.18;2.70;;;;;;;18.58;44.52;94746.91;2972569;39;20059;-68
2021/05/03 07:40:53;;;;;;;5.38;2.25;;;;;;;18.02;44.69;94748.19;2970956;39;20381;-70
2021/05/03 07:42:54;;;;;;;6.35;2.72;;;;;;;18.27;44.86;94744.94;2974474;39;20060;-70
2021/05/03 07:44:57;;;;;;;7.75;2.97;;;;;;;18.64;44.51;94754.06;2965794;40;20057;-71
2021/05/03 07:46:58;;;;;;;5.72;2.90;;;;;;;18.95;43.95;94733.97;2968490;39;20376;-71
2021/05/03 07:49:00;;;;;;;4.32;2.33;;;;;;;18.95;43.80;94739.28;2971975;39;20052;-69
2021/05/03 07:51:02;;;;;;;6.93;2.20;;;;;;;19.02;43.95;94732.94;2973608;39;20070;-70
2021/05/03 07:53:04;;;;;;;6.38;2.03;;;;;;;18.87;43.82;94739.53;2967042;39;20127;-71
2021/05/03 07:55:07;;;;;;;3.28;2.30;;;;;;;18.90;43.07;94736.47;2964938;40;20068;-70
2021/05/03 07:57:09;;;;;;;6.82;2.10;;;;;;;18.97;43.33;94738.06;2965868;40;20056;-71
2021/05/03 07:59:10;;;;;;;4.70;2.58;;;;;;;18.87;41.73;94742.19;2967767;39;20071;-71
2021/05/03 08:01:18;;;;;;;4.85;2.55;;;;;;;18.94;41.98;94741.13;2966798;40;20370;-71
2021/05/03 08:03:20;;;;;;;7.90;2.42;;;;;;;18.88;42.50;94749.13;2970318;39;20055;-70
2021/05/03 08:05:21;;;;;;;3.50;2.40;;;;;;;18.72;42.23;94745.06;2971801;39;20067;-71
2021/05/03 08:07:23;;;;;;;8.18;4.03;;;;;;;18.85;41.68;94741.59;2971671;39;20068;-70
2021/05/03 08:09:25;;;;;;;5.68;2.90;;;;;;;18.52;42.12;94742.44;2973152;39;20055;-70
2021/05/03 08:11:26;;;;;;;5.93;2.53;;;;;;;18.82;42.04;94740.16;2969073;39;20063;-70
2021/05/03 08:13:29;;;;;;;4.35;2.50;;;;;;;18.82;40.47;94756.91;2969816;40;20535;-72
2021/05/03 08:15:30;;;;;;;6.03;2.90;;;;;;;18.78;40.43;94739.75;2965360;40;20144;-70
2021/05/03 08:17:31;;;;;;;4.90;3.03;;;;;;;18.80;41.15;94753.66;2961855;40;20155;-71
2021/05/03 08:19:33;;;;;;;5.18;2.60;;;;;;;18.89;41.46;94758.72;2968824;39;20083;-71
2021/05/03 08:21:34;;;;;;;5.13;2.97;;;;;;;18.66;41.15;94756.50;2976248;39;20058;-72
2021/05/03 08:23:37;;;;;;;4.07;1.90;;;;;;;18.69;41.15;94764.88;2965964;40;20137;-71
2021/05/03 08:25:39;;;;;;;5.18;2.28;;;;;;;18.89;40.42;94766.69;2971322;39;20119;-71
2021/05/03 08:27:45;;;;;;;4.43;2.10;;;;;;;19.07;41.02;94753.53;2968714;39;20072;-72
2021/05/03 08:29:46;;;;;;;5.93;2.40;;;;;;;18.67;40.85;94755.47;2965203;40;20056;-70
2021/05/03 08:31:48;;;;;;;5.20;2.58;;;;;;;18.85;41.37;94760.97;2967561;40;20096;-70
2021/05/03 08:33:50;;;;;;;6.28;2.13;;;;;;;18.78;42.05;94766.31;2970200;39;20303;-70
2021/05/03 08:35:51;;;;;;;5.97;2.17;;;;;;;18.96;41.38;94765.63;2970574;39;20052;-73
2021/05/03 08:37:52;;;;;;;1.95;1.60;;;;;;;19.21;40.51;94770.25;2971643;39;20062;-72
2021/05/03 08:39:53;;;;;;;5.97;2.47;;;;;;;19.33;39.68;94779.16;2966964;39;20064;-72
2021/05/03 08:42:00;;;;;;;4.32;2.53;;;;;;;19.11;39.28;94778.66;2972728;39;20168;-70
2021/05/03 08:44:02;;;;;;;6.80;2.22;;;;;;;19.13;39.11;94776.59;2969570;39;20130;-70
2021/05/03 08:46:03;;;;;;;5.78;2.08;;;;;;;19.24;39.16;94769.81;2969847;39;20060;-70
2021/05/03 08:48:25;;;;;;;4.45;2.40;;;;;;;19.21;39.42;94756.97;2970026;39;20048;-71
2021/05/03 08:50:47;;;;;;;6.45;2.10;;;;;;;19.20;39.87;94756.13;2976166;39;20055;-71
2021/05/03 08:52:53;;;;;;;5.43;2.25;;;;;;;19.44;39.86;94764.41;2967259;39;20153;-71
2021/05/03 08:54:55;;;;;;;8.18;2.28;;;;;;;19.45;39.90;94760.75;2966571;40;20051;-72
2021/05/03 08:56:57;;;;;;;5.47;2.13;;;;;;;19.67;39.54;94755.09;2965311;40;20053;-72
2021/05/03 08:58:58;;;;;;;5.63;1.90;;;;;;;19.71;39.27;94780.25;2967170;39;20060;-70
2021/05/03 09:01:00;;;;;;;4.07;1.83;;;;;;;19.62;38.64;94767.19;2962901;40;20077;-72
2021/05/03 09:03:04;;;;;;;3.40;1.90;;;;;;;19.41;38.48;94781.59;2971788;39;20048;-70
2021/05/03 09:05:06;;;;;;;5.10;2.55;;;;;;;19.57;38.00;94768.84;2968159;39;20152;-71
2021/05/03 09:07:08;;;;;;;5.82;2.65;;;;;;;18.67;39.78;94766.09;2968894;39;20424;-71
2021/05/03 09:09:13;;;;;;;5.03;2.17;;;;;;;18.13;40.94;94767.97;2968407;39;20418;-70
2021/05/03 09:11:15;;;;;;;6.55;2.65;;;;;;;18.55;40.33;94760.59;2971676;39;20096;-71
2021/05/03 09:13:17;;;;;;;7.03;2.25;;;;;;;18.04;41.25;94774.50;2970682;39;20075;-70
2021/05/03 09:15:24;;;;;;;5.32;2.10;;;;;;;18.21;41.06;94770.44;2972228;39;20071;-70
2021/05/03 09:17:33;;;;;;;4.55;2.15;;;;;;;18.01;41.72;94752.69;2969138;39;20064;-71
2021/05/03 09:19:35;;;;;;;4.55;2.22;;;;;;;18.69;40.58;94748.13;2970799;39;20056;-72
2021/05/03 09:21:36;;;;;;;3.63;2.28;;;;;;;18.54;40.11;94748.34;2969847;39;20155;-71
2021/05/03 09:24:13;;;;;;;4.80;2.15;;;;;;;18.53;40.69;94742.25;2966377;40;20067;-71
2021/05/03 09:26:44;;;;;;;3.97;2.20;;;;;;;19.11;39.90;94744.13;2967925;40;20067;-72
2021/05/03 09:28:48;;;;;;;6.53;2.40;;;;;;;19.48;38.70;94722.31;2966009;40;20345;-72
2021/05/03 09:30:59;;;;;;;6.97;2.28;;;;;;;19.62;38.26;94740.59;2973834;39;20061;-73
2021/05/03 09:33:29;;;;;;;5.25;2.58;;;;;;;19.27;38.38;94745.47;2969364;39;20079;-72
2021/05/03 09:35:52;;;;;;;3.75;2.10;;;;;;;18.83;39.49;94742.59;2966919;40;20076;-71
2021/05/03 09:37:53;;;;;;;7.40;2.45;;;;;;;18.99;40.07;94743.16;2965935;40;20092;-71
2021/05/03 09:40:15;;;;;;;7.30;4.20;;;;;;;18.59;40.33;94732.66;2965974;39;20375;-72
2021/05/03 09:42:17;;;;;;;8.30;3.45;;;;;;;19.04;39.24;94753.97;2970332;39;20082;-72
2021/05/03 09:44:18;;;;;;;6.95;3.75;;;;;;;18.52;39.44;94750.41;2967296;40;20135;-70
2021/05/03 09:46:42;;;;;;;5.18;2.83;;;;;;;18.75;40.38;94745.44;2967526;40;20148;-72
2021/05/03 09:48:44;;;;;;;4.80;2.40;;;;;;;19.14;39.26;94742.91;2967960;40;20048;-71
2021/05/03 09:50:45;;;;;;;7.32;2.65;;;;;;;19.32;39.18;94740.38;2965213;40;20056;-72
2021/05/03 09:53:05;;;;;;;13.13;3.65;;;;;;;19.59;37.85;94729.59;2965909;40;20478;-72
2021/05/03 09:55:31;;;;;;;6.47;2.90;;;;;;;19.63;38.35;94730.78;2972819;39;20083;-71